sensor_id;sensor_type;location;lat;lon;timestamp;pressure;altitude;pressure_sealevel;temperature;humidity
79612;BME280;69094;48.154;11.536;2023-07-31T00:00:50;95677.41;;;16.49;61.92
79612;BME280;69094;48.154;11.536;2023-07-31T00:03:15;95679.00;;;16.50;62.11
79612;BME280;69094;48.154;11.536;2023-07-31T00:05:41;95677.91;;;16.35;62.73
79612;BME280;69094;48.154;11.536;2023-07-31T00:08:06;95681.06;;;16.18;62.91
79612;BME280;69094;48.154;11.536;2023-07-31T00:10:31;95678.75;;;16.20;63.14
79612;BME280;69094;48.154;11.536;2023-07-31T00:12:58;95680.94;;;16.14;62.85
79612;BME280;69094;48.154;11.536;2023-07-31T00:15:24;95676.19;;;16.11;63.42
79612;BME280;69094;48.154;11.536;2023-07-31T00:17:49;95686.13;;;16.00;63.94
79612;BME280;69094;48.154;11.536;2023-07-31T00:20:14;95680.09;;;15.94;64.13
79612;BME280;69094;48.154;11.536;2023-07-31T00:22:40;95682.56;;;16.00;64.06
79612;BME280;69094;48.154;11.536;2023-07-31T00:25:05;95679.94;;;16.03;63.75
79612;BME280;69094;48.154;11.536;2023-07-31T00:27:32;95678.13;;;16.11;63.82
79612;BME280;69094;48.154;11.536;2023-07-31T00:29:57;95669.91;;;16.11;63.81
79612;BME280;69094;48.154;11.536;2023-07-31T00:32:22;95668.56;;;16.21;63.38
79612;BME280;69094;48.154;11.536;2023-07-31T00:34:48;95664.84;;;16.13;63.44
79612;BME280;69094;48.154;11.536;2023-07-31T00:37:13;95667.88;;;16.08;63.66
79612;BME280;69094;48.154;11.536;2023-07-31T00:39:40;95670.78;;;16.15;63.41
79612;BME280;69094;48.154;11.536;2023-07-31T00:42:06;95658.94;;;16.11;63.60
79612;BME280;69094;48.154;11.536;2023-07-31T00:44:32;95655.75;;;16.09;63.64
79612;BME280;69094;48.154;11.536;2023-07-31T00:46:57;95663.47;;;16.03;63.93
79612;BME280;69094;48.154;11.536;2023-07-31T00:49:24;95657.00;;;15.96;64.05
79612;BME280;69094;48.154;11.536;2023-07-31T00:51:50;95658.59;;;15.97;63.96
79612;BME280;69094;48.154;11.536;2023-07-31T00:54:15;95656.22;;;15.95;63.71
79612;BME280;69094;48.154;11.536;2023-07-31T00:56:41;95654.63;;;15.94;64.07
79612;BME280;69094;48.154;11.536;2023-07-31T00:59:07;95654.81;;;15.85;64.46
79612;BME280;69094;48.154;11.536;2023-07-31T01:01:33;95651.25;;;15.85;64.76
79612;BME280;69094;48.154;11.536;2023-07-31T01:03:58;95653.22;;;15.84;64.95
79612;BME280;69094;48.154;11.536;2023-07-31T01:09:11;95642.13;;;15.97;64.26
79612;BME280;69094;48.154;11.536;2023-07-31T01:11:47;95646.75;;;15.92;64.01
79612;BME280;69094;48.154;11.536;2023-07-31T01:14:13;95640.19;;;15.97;63.46
79612;BME280;69094;48.154;11.536;2023-07-31T01:16:38;95646.47;;;15.98;63.73
79612;BME280;69094;48.154;11.536;2023-07-31T01:19:06;95631.75;;;16.06;62.73
79612;BME280;69094;48.154;11.536;2023-07-31T01:24:20;95643.97;;;16.08;63.04
79612;BME280;69094;48.154;11.536;2023-07-31T01:26:47;95642.63;;;16.18;62.60
79612;BME280;69094;48.154;11.536;2023-07-31T01:29:24;95636.97;;;16.11;62.23
79612;BME280;69094;48.154;11.536;2023-07-31T01:31:53;95623.88;;;16.04;62.38
79612;BME280;69094;48.154;11.536;2023-07-31T01:34:21;95629.22;;;16.17;61.95
79612;BME280;69094;48.154;11.536;2023-07-31T01:36:47;95619.75;;;16.14;61.47
79612;BME280;69094;48.154;11.536;2023-07-31T01:39:12;95621.78;;;16.17;61.63
79612;BME280;69094;48.154;11.536;2023-07-31T01:41:38;95619.75;;;16.14;61.76
79612;BME280;69094;48.154;11.536;2023-07-31T01:44:03;95609.84;;;16.09;62.24
79612;BME280;69094;48.154;11.536;2023-07-31T01:46:29;95623.69;;;16.13;62.21
79612;BME280;69094;48.154;11.536;2023-07-31T01:48:54;95626.72;;;16.08;62.82
79612;BME280;69094;48.154;11.536;2023-07-31T01:51:19;95622.50;;;16.14;62.62
79612;BME280;69094;48.154;11.536;2023-07-31T01:53:45;95621.22;;;16.08;62.99
79612;BME280;69094;48.154;11.536;2023-07-31T01:56:10;95615.34;;;16.09;62.92
79612;BME280;69094;48.154;11.536;2023-07-31T01:58:35;95610.25;;;16.08;63.42
79612;BME280;69094;48.154;11.536;2023-07-31T02:01:01;95603.41;;;16.02;63.53
79612;BME280;69094;48.154;11.536;2023-07-31T02:03:26;95612.03;;;16.20;63.00
79612;BME280;69094;48.154;11.536;2023-07-31T02:05:53;95617.13;;;16.18;63.02
79612;BME280;69094;48.154;11.536;2023-07-31T02:08:19;95606.47;;;16.16;63.21
79612;BME280;69094;48.154;11.536;2023-07-31T02:10:44;95610.53;;;16.22;63.20
79612;BME280;69094;48.154;11.536;2023-07-31T02:13:09;95609.88;;;16.29;62.50
79612;BME280;69094;48.154;11.536;2023-07-31T02:15:36;95602.72;;;16.24;62.75
79612;BME280;69094;48.154;11.536;2023-07-31T02:18:02;95604.53;;;16.36;62.22
79612;BME280;69094;48.154;11.536;2023-07-31T02:20:27;95604.09;;;16.34;62.02
79612;BME280;69094;48.154;11.536;2023-07-31T02:22:52;95589.63;;;16.37;62.48
79612;BME280;69094;48.154;11.536;2023-07-31T02:25:18;95595.38;;;16.28;62.46
79612;BME280;69094;48.154;11.536;2023-07-31T02:27:43;95597.75;;;16.30;62.52
79612;BME280;69094;48.154;11.536;2023-07-31T02:30:09;95585.59;;;16.31;62.84
79612;BME280;69094;48.154;11.536;2023-07-31T02:32:34;95587.19;;;16.32;62.99
79612;BME280;69094;48.154;11.536;2023-07-31T02:35:00;95577.66;;;16.26;62.85
79612;BME280;69094;48.154;11.536;2023-07-31T02:37:25;95583.34;;;16.36;62.75
79612;BME280;69094;48.154;11.536;2023-07-31T02:39:51;95578.16;;;16.31;63.39
79612;BME280;69094;48.154;11.536;2023-07-31T02:42:16;95573.41;;;16.28;63.61
79612;BME280;69094;48.154;11.536;2023-07-31T02:44:41;95575.25;;;16.24;63.96
79612;BME280;69094;48.154;11.536;2023-07-31T02:47:07;95575.25;;;16.24;63.78
79612;BME280;69094;48.154;11.536;2023-07-31T02:49:32;95572.94;;;16.07;64.45
79612;BME280;69094;48.154;11.536;2023-07-31T02:51:58;95572.66;;;16.12;64.42
79612;BME280;69094;48.154;11.536;2023-07-31T02:54:23;95558.53;;;16.10;64.31
79612;BME280;69094;48.154;11.536;2023-07-31T02:56:48;95561.53;;;16.05;64.85
79612;BME280;69094;48.154;11.536;2023-07-31T02:59:14;95565.13;;;15.89;65.42
79612;BME280;69094;48.154;11.536;2023-07-31T03:01:39;95568.94;;;15.85;66.09
79612;BME280;69094;48.154;11.536;2023-07-31T03:04:05;95567.72;;;15.82;66.35
79612;BME280;69094;48.154;11.536;2023-07-31T03:06:30;95570.84;;;15.81;66.19
79612;BME280;69094;48.154;11.536;2023-07-31T03:08:55;95564.19;;;15.82;66.19
79612;BME280;69094;48.154;11.536;2023-07-31T03:11:21;95554.66;;;15.76;66.59
79612;BME280;69094;48.154;11.536;2023-07-31T03:13:46;95561.75;;;15.61;67.05
79612;BME280;69094;48.154;11.536;2023-07-31T03:16:12;95558.38;;;15.51;67.96
79612;BME280;69094;48.154;11.536;2023-07-31T03:18:37;95561.19;;;15.55;68.02
79612;BME280;69094;48.154;11.536;2023-07-31T03:21:02;95560.06;;;15.56;68.09
79612;BME280;69094;48.154;11.536;2023-07-31T03:23:29;95557.31;;;15.56;68.05
79612;BME280;69094;48.154;11.536;2023-07-31T03:25:59;95556.09;;;15.54;68.44
79612;BME280;69094;48.154;11.536;2023-07-31T03:28:24;95564.88;;;15.43;68.86
79612;BME280;69094;48.154;11.536;2023-07-31T03:30:51;95561.84;;;15.48;68.93
79612;BME280;69094;48.154;11.536;2023-07-31T03:33:16;95562.97;;;15.47;69.35
79612;BME280;69094;48.154;11.536;2023-07-31T03:35:42;95567.22;;;15.45;69.55
79612;BME280;69094;48.154;11.536;2023-07-31T03:38:07;95575.03;;;15.43;69.62
79612;BME280;69094;48.154;11.536;2023-07-31T03:40:32;95568.56;;;15.51;69.49
79612;BME280;69094;48.154;11.536;2023-07-31T03:42:58;95568.84;;;15.46;69.96
79612;BME280;69094;48.154;11.536;2023-07-31T03:45:23;95571.22;;;15.47;69.79
79612;BME280;69094;48.154;11.536;2023-07-31T03:47:48;95576.41;;;15.52;69.84
79612;BME280;69094;48.154;11.536;2023-07-31T03:50:14;95572.09;;;15.51;70.09
79612;BME280;69094;48.154;11.536;2023-07-31T03:52:41;95576.00;;;15.50;70.10
79612;BME280;69094;48.154;11.536;2023-07-31T03:55:06;95576.06;;;15.54;69.74
79612;BME280;69094;48.154;11.536;2023-07-31T03:57:32;95567.16;;;15.41;70.23
79612;BME280;69094;48.154;11.536;2023-07-31T03:59:57;95569.00;;;15.53;69.75
79612;BME280;69094;48.154;11.536;2023-07-31T04:02:23;95570.34;;;15.43;70.16
79612;BME280;69094;48.154;11.536;2023-07-31T04:04:49;95567.50;;;15.40;70.27
79612;BME280;69094;48.154;11.536;2023-07-31T04:07:14;95571.75;;;15.53;70.22
79612;BME280;69094;48.154;11.536;2023-07-31T04:09:39;95573.69;;;15.52;70.13
79612;BME280;69094;48.154;11.536;2023-07-31T04:12:05;95561.56;;;15.54;70.10
79612;BME280;69094;48.154;11.536;2023-07-31T04:14:30;95563.16;;;15.55;70.15
79612;BME280;69094;48.154;11.536;2023-07-31T04:16:56;95555.47;;;15.44;70.36
79612;BME280;69094;48.154;11.536;2023-07-31T04:19:21;95560.84;;;15.57;70.11
79612;BME280;69094;48.154;11.536;2023-07-31T04:21:46;95567.28;;;15.64;69.71
79612;BME280;69094;48.154;11.536;2023-07-31T04:24:12;95551.72;;;15.52;70.12
79612;BME280;69094;48.154;11.536;2023-07-31T04:26:37;95566.94;;;15.50;70.31
79612;BME280;69094;48.154;11.536;2023-07-31T04:29:02;95567.31;;;15.48;70.32
79612;BME280;69094;48.154;11.536;2023-07-31T04:31:28;95558.44;;;15.55;70.29
79612;BME280;69094;48.154;11.536;2023-07-31T04:33:53;95563.09;;;15.51;70.69
79612;BME280;69094;48.154;11.536;2023-07-31T04:36:18;95557.16;;;15.49;70.55
79612;BME280;69094;48.154;11.536;2023-07-31T04:38:44;95561.91;;;15.52;71.65
79612;BME280;69094;48.154;11.536;2023-07-31T04:41:09;95556.50;;;15.71;70.77
79612;BME280;69094;48.154;11.536;2023-07-31T04:43:34;95555.19;;;15.65;70.48
79612;BME280;69094;48.154;11.536;2023-07-31T04:46:00;95547.41;;;15.51;71.42
79612;BME280;69094;48.154;11.536;2023-07-31T04:48:25;95554.13;;;15.70;71.02
79612;BME280;69094;48.154;11.536;2023-07-31T04:50:50;95562.25;;;15.66;70.44
79612;BME280;69094;48.154;11.536;2023-07-31T04:53:16;95558.19;;;15.60;70.78
79612;BME280;69094;48.154;11.536;2023-07-31T04:55:41;95549.16;;;15.60;71.01
79612;BME280;69094;48.154;11.536;2023-07-31T04:58:07;95545.28;;;15.61;71.06
79612;BME280;69094;48.154;11.536;2023-07-31T05:00:32;95550.94;;;15.68;70.71
79612;BME280;69094;48.154;11.536;2023-07-31T05:02:57;95548.03;;;15.61;70.80
79612;BME280;69094;48.154;11.536;2023-07-31T05:05:23;95555.53;;;15.64;70.91
79612;BME280;69094;48.154;11.536;2023-07-31T05:07:48;95550.94;;;15.68;70.79
79612;BME280;69094;48.154;11.536;2023-07-31T05:10:13;95547.31;;;15.64;71.53
79612;BME280;69094;48.154;11.536;2023-07-31T05:12:39;95549.66;;;15.81;70.92
79612;BME280;69094;48.154;11.536;2023-07-31T05:15:05;95554.97;;;16.09;70.18
79612;BME280;69094;48.154;11.536;2023-07-31T05:17:30;95567.16;;;16.12;70.17
79612;BME280;69094;48.154;11.536;2023-07-31T05:19:56;95560.59;;;16.17;70.04
79612;BME280;69094;48.154;11.536;2023-07-31T05:22:21;95556.72;;;16.18;70.13
79612;BME280;69094;48.154;11.536;2023-07-31T05:24:47;95563.41;;;16.40;69.16
79612;BME280;69094;48.154;11.536;2023-07-31T05:27:12;95559.06;;;16.58;68.55
79612;BME280;69094;48.154;11.536;2023-07-31T05:29:40;95559.94;;;16.62;67.85
79612;BME280;69094;48.154;11.536;2023-07-31T05:32:06;95552.75;;;16.77;66.97
79612;BME280;69094;48.154;11.536;2023-07-31T05:34:31;95542.88;;;16.95;66.21
79612;BME280;69094;48.154;11.536;2023-07-31T05:36:57;95543.50;;;17.08;65.45
79612;BME280;69094;48.154;11.536;2023-07-31T05:39:22;95554.91;;;17.10;65.16
79612;BME280;69094;48.154;11.536;2023-07-31T05:41:47;95555.16;;;17.25;64.66
79612;BME280;69094;48.154;11.536;2023-07-31T05:44:13;95551.19;;;17.22;63.88
79612;BME280;69094;48.154;11.536;2023-07-31T05:46:38;95535.59;;;17.30;63.33
79612;BME280;69094;48.154;11.536;2023-07-31T05:49:03;95550.53;;;17.55;62.52
79612;BME280;69094;48.154;11.536;2023-07-31T05:51:29;95548.06;;;17.47;62.73
79612;BME280;69094;48.154;11.536;2023-07-31T05:53:54;95538.88;;;17.39;62.47
79612;BME280;69094;48.154;11.536;2023-07-31T05:56:20;95547.84;;;17.59;62.60
79612;BME280;69094;48.154;11.536;2023-07-31T05:58:45;95538.09;;;17.65;61.84
79612;BME280;69094;48.154;11.536;2023-07-31T06:01:10;95555.19;;;17.78;61.83
79612;BME280;69094;48.154;11.536;2023-07-31T06:03:36;95560.16;;;17.95;60.93
79612;BME280;69094;48.154;11.536;2023-07-31T06:06:01;95553.22;;;18.05;59.95
79612;BME280;69094;48.154;11.536;2023-07-31T06:08:27;95550.19;;;18.14;60.53
79612;BME280;69094;48.154;11.536;2023-07-31T06:10:52;95549.34;;;18.10;59.40
79612;BME280;69094;48.154;11.536;2023-07-31T06:13:18;95544.59;;;18.40;59.45
79612;BME280;69094;48.154;11.536;2023-07-31T06:15:43;95552.91;;;18.44;59.28
79612;BME280;69094;48.154;11.536;2023-07-31T06:18:08;95550.72;;;18.60;58.16
79612;BME280;69094;48.154;11.536;2023-07-31T06:20:35;95552.41;;;18.68;57.57
79612;BME280;69094;48.154;11.536;2023-07-31T06:23:00;95566.84;;;18.92;57.50
79612;BME280;69094;48.154;11.536;2023-07-31T06:25:26;95562.03;;;18.85;57.13
79612;BME280;69094;48.154;11.536;2023-07-31T06:27:51;95555.06;;;18.61;56.86
79612;BME280;69094;48.154;11.536;2023-07-31T06:30:16;95561.03;;;18.33;58.00
79612;BME280;69094;48.154;11.536;2023-07-31T06:32:42;95559.44;;;18.28;58.30
79612;BME280;69094;48.154;11.536;2023-07-31T06:35:08;95563.97;;;18.14;58.72
79612;BME280;69094;48.154;11.536;2023-07-31T06:37:33;95559.28;;;17.88;59.59
79612;BME280;69094;48.154;11.536;2023-07-31T06:39:59;95560.91;;;17.92;59.52
79612;BME280;69094;48.154;11.536;2023-07-31T06:42:24;95560.06;;;17.88;59.30
79612;BME280;69094;48.154;11.536;2023-07-31T06:44:49;95567.66;;;17.98;59.15
79612;BME280;69094;48.154;11.536;2023-07-31T06:47:15;95566.09;;;18.27;58.41
79612;BME280;69094;48.154;11.536;2023-07-31T06:49:40;95565.91;;;18.43;57.82
79612;BME280;69094;48.154;11.536;2023-07-31T06:52:06;95567.81;;;18.39;57.55
79612;BME280;69094;48.154;11.536;2023-07-31T06:54:31;95558.09;;;18.49;58.16
79612;BME280;69094;48.154;11.536;2023-07-31T06:56:57;95553.31;;;18.76;56.84
79612;BME280;69094;48.154;11.536;2023-07-31T06:59:22;95550.28;;;18.88;55.94
79612;BME280;69094;48.154;11.536;2023-07-31T07:01:47;95541.94;;;18.85;56.17
79612;BME280;69094;48.154;11.536;2023-07-31T07:04:13;95544.78;;;18.58;56.46
79612;BME280;69094;48.154;11.536;2023-07-31T07:06:39;95536.16;;;18.26;57.20
79612;BME280;69094;48.154;11.536;2023-07-31T07:09:04;95545.00;;;18.42;57.63
79612;BME280;69094;48.154;11.536;2023-07-31T07:11:30;95551.47;;;18.57;56.90
79612;BME280;69094;48.154;11.536;2023-07-31T07:13:55;95549.66;;;18.72;57.34
79612;BME280;69094;48.154;11.536;2023-07-31T07:16:20;95547.09;;;18.86;56.46
79612;BME280;69094;48.154;11.536;2023-07-31T07:18:46;95547.91;;;18.90;56.80
79612;BME280;69094;48.154;11.536;2023-07-31T07:21:11;95558.38;;;19.15;55.99
79612;BME280;69094;48.154;11.536;2023-07-31T07:23:41;95553.09;;;19.44;55.07
79612;BME280;69094;48.154;11.536;2023-07-31T07:26:06;95551.97;;;19.52;54.68
79612;BME280;69094;48.154;11.536;2023-07-31T07:28:32;95550.38;;;19.47;54.34
79612;BME280;69094;48.154;11.536;2023-07-31T07:30:57;95552.84;;;19.11;55.76
79612;BME280;69094;48.154;11.536;2023-07-31T07:33:23;95542.09;;;19.47;54.98
79612;BME280;69094;48.154;11.536;2023-07-31T07:35:48;95546.75;;;19.36;54.86
79612;BME280;69094;48.154;11.536;2023-07-31T07:38:14;95542.56;;;19.60;54.85
79612;BME280;69094;48.154;11.536;2023-07-31T07:40:40;95541.41;;;20.31;52.57
79612;BME280;69094;48.154;11.536;2023-07-31T07:43:06;95536.38;;;20.47;51.30
79612;BME280;69094;48.154;11.536;2023-07-31T07:45:31;95533.66;;;20.61;51.52
79612;BME280;69094;48.154;11.536;2023-07-31T07:47:56;95535.25;;;20.77;51.09
79612;BME280;69094;48.154;11.536;2023-07-31T07:50:23;95521.72;;;20.43;51.59
79612;BME280;69094;48.154;11.536;2023-07-31T07:52:48;95522.53;;;20.40;51.38
79612;BME280;69094;48.154;11.536;2023-07-31T07:55:13;95507.09;;;20.39;51.83
79612;BME280;69094;48.154;11.536;2023-07-31T07:57:39;95508.34;;;20.52;51.21
79612;BME280;69094;48.154;11.536;2023-07-31T08:00:05;95507.59;;;20.55;50.67
79612;BME280;69094;48.154;11.536;2023-07-31T08:02:31;95502.47;;;20.64;50.65
79612;BME280;69094;48.154;11.536;2023-07-31T08:04:56;95501.22;;;20.51;50.36
79612;BME280;69094;48.154;11.536;2023-07-31T08:07:21;95496.25;;;19.91;52.00
79612;BME280;69094;48.154;11.536;2023-07-31T08:09:47;95512.56;;;20.25;50.69
79612;BME280;69094;48.154;11.536;2023-07-31T08:12:12;95503.53;;;20.42;49.83
79612;BME280;69094;48.154;11.536;2023-07-31T08:14:37;95508.72;;;20.54;49.28
79612;BME280;69094;48.154;11.536;2023-07-31T08:17:03;95521.09;;;21.61;47.05
79612;BME280;69094;48.154;11.536;2023-07-31T08:19:28;95514.38;;;21.65;47.00
79612;BME280;69094;48.154;11.536;2023-07-31T08:21:54;95522.22;;;22.03;45.33
79612;BME280;69094;48.154;11.536;2023-07-31T08:24:19;95507.91;;;22.15;45.19
79612;BME280;69094;48.154;11.536;2023-07-31T08:26:45;95506.44;;;21.82;46.51
79612;BME280;69094;48.154;11.536;2023-07-31T08:29:10;95518.34;;;21.64;46.34
79612;BME280;69094;48.154;11.536;2023-07-31T08:31:36;95513.59;;;21.25;46.73
79612;BME280;69094;48.154;11.536;2023-07-31T08:34:01;95506.84;;;21.01;47.41
79612;BME280;69094;48.154;11.536;2023-07-31T08:36:26;95508.00;;;20.68;47.93
79612;BME280;69094;48.154;11.536;2023-07-31T08:38:52;95508.78;;;20.58;48.49
79612;BME280;69094;48.154;11.536;2023-07-31T08:41:18;95504.84;;;20.66;47.05
79612;BME280;69094;48.154;11.536;2023-07-31T08:43:45;95505.59;;;20.59;48.02
79612;BME280;69094;48.154;11.536;2023-07-31T08:46:11;95496.13;;;20.57;47.69
79612;BME280;69094;48.154;11.536;2023-07-31T08:48:37;95485.00;;;20.42;48.07
79612;BME280;69094;48.154;11.536;2023-07-31T08:51:04;95503.56;;;20.49;48.35
79612;BME280;69094;48.154;11.536;2023-07-31T08:53:29;95507.44;;;20.23;49.23
79612;BME280;69094;48.154;11.536;2023-07-31T08:55:56;95494.72;;;20.04;49.74
79612;BME280;69094;48.154;11.536;2023-07-31T08:58:23;95501.41;;;19.99;49.74
79612;BME280;69094;48.154;11.536;2023-07-31T09:00:50;95504.53;;;19.91;49.90
79612;BME280;69094;48.154;11.536;2023-07-31T09:03:17;95499.84;;;20.02;49.30
79612;BME280;69094;48.154;11.536;2023-07-31T09:05:45;95509.00;;;20.13;49.42
79612;BME280;69094;48.154;11.536;2023-07-31T09:08:12;95503.94;;;20.37;48.67
79612;BME280;69094;48.154;11.536;2023-07-31T09:10:45;95502.53;;;21.00;47.63
79612;BME280;69094;48.154;11.536;2023-07-31T09:13:12;95497.59;;;22.33;44.74
79612;BME280;69094;48.154;11.536;2023-07-31T09:15:38;95498.72;;;22.47;43.69
79612;BME280;69094;48.154;11.536;2023-07-31T09:18:05;95492.09;;;22.93;42.28
79612;BME280;69094;48.154;11.536;2023-07-31T09:20:31;95493.00;;;22.75;41.74
79612;BME280;69094;48.154;11.536;2023-07-31T09:23:05;95491.59;;;22.42;45.55
79612;BME280;69094;48.154;11.536;2023-07-31T09:25:31;95482.81;;;22.54;42.57
79612;BME280;69094;48.154;11.536;2023-07-31T09:30:25;95489.13;;;22.62;42.73
79612;BME280;69094;48.154;11.536;2023-07-31T09:32:51;95482.63;;;22.87;43.48
79612;BME280;69094;48.154;11.536;2023-07-31T09:35:30;95484.50;;;23.04;41.16
79612;BME280;69094;48.154;11.536;2023-07-31T09:37:58;95483.91;;;23.31;41.32
79612;BME280;69094;48.154;11.536;2023-07-31T09:42:53;95487.78;;;24.20;39.61
79612;BME280;69094;48.154;11.536;2023-07-31T09:45:19;95488.19;;;24.53;38.42
79612;BME280;69094;48.154;11.536;2023-07-31T09:47:48;95473.66;;;24.96;37.83
79612;BME280;69094;48.154;11.536;2023-07-31T09:50:15;95474.88;;;25.45;37.14
79612;BME280;69094;48.154;11.536;2023-07-31T09:52:41;95462.78;;;25.32;36.02
79612;BME280;69094;48.154;11.536;2023-07-31T09:55:10;95468.78;;;25.97;36.13
79612;BME280;69094;48.154;11.536;2023-07-31T09:57:47;95468.00;;;26.37;34.14
79612;BME280;69094;48.154;11.536;2023-07-31T10:00:14;95459.13;;;26.42;33.87
79612;BME280;69094;48.154;11.536;2023-07-31T10:02:40;95455.25;;;26.16;35.26
79612;BME280;69094;48.154;11.536;2023-07-31T10:05:07;95440.94;;;25.03;36.50
79612;BME280;69094;48.154;11.536;2023-07-31T10:07:45;95452.63;;;24.95;37.09
79612;BME280;69094;48.154;11.536;2023-07-31T10:10:11;95444.75;;;24.62;37.28
79612;BME280;69094;48.154;11.536;2023-07-31T10:12:37;95427.91;;;24.12;38.20
79612;BME280;69094;48.154;11.536;2023-07-31T10:15:04;95423.72;;;25.35;37.01
79612;BME280;69094;48.154;11.536;2023-07-31T10:17:31;95418.59;;;25.97;35.13
79612;BME280;69094;48.154;11.536;2023-07-31T10:19:58;95422.75;;;26.66;34.10
79612;BME280;69094;48.154;11.536;2023-07-31T10:22:27;95414.13;;;27.87;30.81
79612;BME280;69094;48.154;11.536;2023-07-31T10:24:54;95419.44;;;26.34;34.23
79612;BME280;69094;48.154;11.536;2023-07-31T10:27:20;95416.50;;;27.43;32.31
79612;BME280;69094;48.154;11.536;2023-07-31T10:29:47;95412.91;;;26.41;33.05
79612;BME280;69094;48.154;11.536;2023-07-31T10:32:14;95408.09;;;26.05;33.78
79612;BME280;69094;48.154;11.536;2023-07-31T10:34:41;95403.56;;;26.68;32.82
79612;BME280;69094;48.154;11.536;2023-07-31T10:37:25;95406.44;;;26.08;34.19
79612;BME280;69094;48.154;11.536;2023-07-31T10:40:03;95403.16;;;25.93;33.98
79612;BME280;69094;48.154;11.536;2023-07-31T10:42:53;95399.19;;;25.03;36.42
79612;BME280;69094;48.154;11.536;2023-07-31T10:45:33;95408.72;;;24.79;36.82
79612;BME280;69094;48.154;11.536;2023-07-31T10:48:19;95400.44;;;24.48;37.24
79612;BME280;69094;48.154;11.536;2023-07-31T10:50:56;95390.34;;;24.31;36.67
79612;BME280;69094;48.154;11.536;2023-07-31T10:53:31;95391.94;;;23.63;37.76
79612;BME280;69094;48.154;11.536;2023-07-31T10:56:01;95395.78;;;23.76;37.76
79612;BME280;69094;48.154;11.536;2023-07-31T10:58:27;95400.53;;;22.93;39.36
79612;BME280;69094;48.154;11.536;2023-07-31T11:00:57;95396.66;;;24.62;36.48
79612;BME280;69094;48.154;11.536;2023-07-31T11:03:40;95389.31;;;25.66;34.47
79612;BME280;69094;48.154;11.536;2023-07-31T11:06:07;95371.28;;;26.14;32.64
79612;BME280;69094;48.154;11.536;2023-07-31T11:08:33;95377.84;;;26.40;32.34
79612;BME280;69094;48.154;11.536;2023-07-31T11:13:50;95375.19;;;26.16;33.84
79612;BME280;69094;48.154;11.536;2023-07-31T11:16:18;95379.28;;;25.72;34.28
79612;BME280;69094;48.154;11.536;2023-07-31T11:18:45;95382.06;;;25.72;34.79
79612;BME280;69094;48.154;11.536;2023-07-31T11:21:14;95371.03;;;25.85;34.27
79612;BME280;69094;48.154;11.536;2023-07-31T11:23:40;95377.00;;;26.07;34.39
79612;BME280;69094;48.154;11.536;2023-07-31T11:26:06;95383.19;;;25.54;33.99
79612;BME280;69094;48.154;11.536;2023-07-31T11:28:33;95359.34;;;25.93;34.04
79612;BME280;69094;48.154;11.536;2023-07-31T11:30:59;95372.84;;;26.51;33.02
79612;BME280;69094;48.154;11.536;2023-07-31T11:33:25;95359.72;;;26.32;33.20
79612;BME280;69094;48.154;11.536;2023-07-31T11:35:50;95352.97;;;25.93;33.41
79612;BME280;69094;48.154;11.536;2023-07-31T11:38:29;95346.38;;;25.63;33.84
79612;BME280;69094;48.154;11.536;2023-07-31T11:40:59;95342.25;;;26.28;33.58
79612;BME280;69094;48.154;11.536;2023-07-31T11:43:25;95339.00;;;27.15;31.63
79612;BME280;69094;48.154;11.536;2023-07-31T11:45:58;95339.78;;;27.61;30.39
79612;BME280;69094;48.154;11.536;2023-07-31T11:48:25;95334.28;;;27.57;32.11
79612;BME280;69094;48.154;11.536;2023-07-31T11:50:53;95329.44;;;28.42;30.26
79612;BME280;69094;48.154;11.536;2023-07-31T11:55:54;95317.47;;;28.67;29.02
79612;BME280;69094;48.154;11.536;2023-07-31T11:58:20;95314.53;;;28.83;28.40
79612;BME280;69094;48.154;11.536;2023-07-31T12:00:47;95299.59;;;28.99;28.58
79612;BME280;69094;48.154;11.536;2023-07-31T12:03:13;95298.22;;;28.43;28.57
79612;BME280;69094;48.154;11.536;2023-07-31T12:05:39;95300.84;;;27.54;29.83
79612;BME280;69094;48.154;11.536;2023-07-31T12:08:11;95295.44;;;27.76;29.44
79612;BME280;69094;48.154;11.536;2023-07-31T12:10:37;95292.88;;;27.81;29.88
79612;BME280;69094;48.154;11.536;2023-07-31T12:13:05;95289.47;;;28.03;30.04
79612;BME280;69094;48.154;11.536;2023-07-31T12:17:59;95278.28;;;27.19;30.39
79612;BME280;69094;48.154;11.536;2023-07-31T12:20:24;95284.00;;;27.70;29.29
79612;BME280;69094;48.154;11.536;2023-07-31T12:22:50;95276.41;;;27.58;29.72
79612;BME280;69094;48.154;11.536;2023-07-31T12:25:16;95270.06;;;28.85;29.30
79612;BME280;69094;48.154;11.536;2023-07-31T12:27:44;95272.94;;;29.07;28.40
79612;BME280;69094;48.154;11.536;2023-07-31T12:30:29;95264.63;;;28.56;28.35
79612;BME280;69094;48.154;11.536;2023-07-31T12:32:55;95257.47;;;28.04;28.81
79612;BME280;69094;48.154;11.536;2023-07-31T12:35:20;95261.69;;;27.12;29.30
79612;BME280;69094;48.154;11.536;2023-07-31T12:37:46;95257.38;;;26.45;30.05
79612;BME280;69094;48.154;11.536;2023-07-31T12:40:11;95261.69;;;26.95;30.75
79612;BME280;69094;48.154;11.536;2023-07-31T12:42:37;95241.41;;;27.53;29.25
79612;BME280;69094;48.154;11.536;2023-07-31T12:45:03;95242.13;;;28.47;27.85
79612;BME280;69094;48.154;11.536;2023-07-31T12:47:29;95244.81;;;28.63;27.61
79612;BME280;69094;48.154;11.536;2023-07-31T12:49:54;95240.00;;;28.51;28.44
79612;BME280;69094;48.154;11.536;2023-07-31T12:52:20;95235.66;;;27.44;29.96
79612;BME280;69094;48.154;11.536;2023-07-31T12:54:45;95239.50;;;27.21;30.35
79612;BME280;69094;48.154;11.536;2023-07-31T12:57:11;95233.50;;;27.90;29.75
79612;BME280;69094;48.154;11.536;2023-07-31T12:59:36;95238.06;;;27.00;31.81
79612;BME280;69094;48.154;11.536;2023-07-31T13:02:02;95236.09;;;26.84;32.10
79612;BME280;69094;48.154;11.536;2023-07-31T13:04:27;95228.38;;;26.26;33.27